Time;durP1;ratioP1;P1;durP2;ratioP2;P2;SDS_P1;SDS_P2;PMS_P1;PMS_P2;Temp;Humidity;BMP_temperature;BMP_pressure;BME280_temperature;BME280_humidity;BME280_pressure;Samples;Min_cycle;Max_cycle;Signal;HPM_P1;HPM_P2
2021/11/04 00:01:01;;;;;;;28.95;23.42;;;10.60;99.90;;;;;;5050504;28;20627;-71
2021/11/04 00:03:27;;;;;;;33.67;26.13;;;10.60;99.90;;;;;;5051910;28;20177;-72
2021/11/04 00:05:53;;;;;;;33.92;24.98;;;10.60;99.90;;;;;;5051744;28;20607;-71
2021/11/04 00:08:19;;;;;;;30.30;22.37;;;10.60;99.90;;;;;;5067368;28;20526;-72
2021/11/04 00:10:46;;;;;;;33.78;24.55;;;10.60;99.90;;;;;;5050625;28;20173;-72
2021/11/04 00:13:11;;;;;;;31.70;25.40;;;10.60;99.90;;;;;;5051940;28;20179;-73
2021/11/04 00:15:38;;;;;;;28.58;23.58;;;10.60;99.90;;;;;;5034037;28;20611;-73
2021/11/04 00:18:04;;;;;;;29.77;23.27;;;10.60;99.90;;;;;;5051056;28;20245;-73
2021/11/04 00:20:30;;;;;;;33.05;24.80;;;10.50;99.90;;;;;;5049333;28;20266;-73
2021/11/04 00:22:56;;;;;;;40.25;26.88;;;10.60;99.90;;;;;;5050540;28;20161;-73
2021/11/04 00:25:22;;;;;;;30.92;23.25;;;10.50;99.90;;;;;;5050535;28;20291;-73
2021/11/04 00:27:49;;;;;;;28.80;23.17;;;10.50;99.90;;;;;;5050287;28;20248;-73
2021/11/04 00:30:17;;;;;;;28.08;23.20;;;10.50;99.90;;;;;;5050458;28;20905;-73
2021/11/04 00:32:54;;;;;;;30.27;23.02;;;10.50;99.90;;;;;;5066312;28;20173;-73
2021/11/04 00:35:20;;;;;;;30.67;24.25;;;10.50;99.90;;;;;;5050503;28;20196;-73
2021/11/04 00:37:47;;;;;;;30.33;22.10;;;10.50;99.90;;;;;;5051445;28;20522;-71
2021/11/04 00:40:16;;;;;;;30.80;24.15;;;10.50;99.90;;;;;;5050207;28;20232;-71
2021/11/04 00:42:42;;;;;;;32.25;23.02;;;10.50;99.90;;;;;;5051489;28;20601;-71
2021/11/04 00:45:08;;;;;;;37.03;25.00;;;10.50;99.90;;;;;;5056215;28;20265;-71
2021/11/04 00:47:35;;;;;;;32.13;25.75;;;10.50;99.90;;;;;;5071315;28;20187;-71
2021/11/04 00:50:01;;;;;;;30.77;25.05;;;10.50;99.90;;;;;;5071335;28;20757;-71
2021/11/04 00:52:26;;;;;;;30.73;21.80;;;10.50;99.90;;;;;;5071427;28;20175;-71
2021/11/04 00:54:52;;;;;;;28.77;22.73;;;10.50;99.90;;;;;;5071061;28;20204;-70
2021/11/04 00:57:18;;;;;;;33.10;23.30;;;10.50;99.90;;;;;;5071285;28;20179;-71
2021/11/04 00:59:44;;;;;;;26.83;20.00;;;10.50;99.90;;;;;;5071054;28;20283;-71
2021/11/04 01:02:10;;;;;;;29.63;22.73;;;10.50;99.90;;;;;;5071451;28;21134;-71
2021/11/04 01:04:36;;;;;;;31.57;24.07;;;10.50;99.90;;;;;;5070932;28;20563;-71
2021/11/04 01:07:01;;;;;;;37.27;25.97;;;10.50;99.90;;;;;;5053322;28;20179;-70
2021/11/04 01:09:27;;;;;;;31.37;23.10;;;10.50;99.90;;;;;;5071344;28;20177;-71
2021/11/04 01:11:53;;;;;;;30.33;22.17;;;10.50;99.90;;;;;;5070953;28;20175;-71
2021/11/04 01:14:18;;;;;;;34.03;24.40;;;10.50;99.90;;;;;;5071217;28;20192;-71
2021/11/04 01:16:44;;;;;;;29.87;23.10;;;10.50;99.90;;;;;;5070698;28;20184;-71
2021/11/04 01:19:12;;;;;;;36.93;24.13;;;10.40;99.90;;;;;;5071202;28;20188;-71
2021/11/04 01:21:39;;;;;;;34.15;23.90;;;10.40;99.90;;;;;;5070754;28;20208;-71
2021/11/04 01:24:06;;;;;;;34.50;24.88;;;10.40;99.90;;;;;;5071001;28;20632;-71
2021/11/04 01:26:32;;;;;;;34.83;25.08;;;10.40;99.90;;;;;;5070510;28;20543;-71
2021/11/04 01:28:58;;;;;;;34.45;25.75;;;10.40;99.90;;;;;;5070968;28;20166;-71
2021/11/04 01:31:24;;;;;;;34.70;24.37;;;10.40;99.90;;;;;;5053085;28;20204;-71
2021/11/04 01:33:50;;;;;;;32.40;23.90;;;10.40;99.90;;;;;;5070938;28;20172;-72
2021/11/04 01:36:15;;;;;;;33.10;23.50;;;10.40;99.90;;;;;;5070831;28;20737;-71
2021/11/04 01:38:41;;;;;;;35.13;24.47;;;10.40;99.90;;;;;;5070680;28;20173;-71
2021/11/04 01:41:07;;;;;;;32.77;23.20;;;10.40;99.90;;;;;;5069784;28;20196;-71
2021/11/04 01:43:33;;;;;;;30.83;22.07;;;10.40;99.90;;;;;;5070685;28;20653;-71
2021/11/04 01:45:59;;;;;;;35.60;23.57;;;10.40;99.90;;;;;;5052818;28;21025;-71
2021/11/04 01:48:25;;;;;;;30.87;21.53;;;10.40;99.90;;;;;;5052791;28;20567;-71
2021/11/04 01:50:50;;;;;;;32.40;23.23;;;10.40;99.90;;;;;;5071099;28;20172;-71
2021/11/04 01:53:19;;;;;;;29.40;21.63;;;10.40;99.90;;;;;;5070615;28;20570;-71
2021/11/04 01:55:45;;;;;;;30.40;23.17;;;10.40;99.90;;;;;;5073868;28;20634;-71
2021/11/04 01:58:10;;;;;;;37.70;24.52;;;10.40;99.90;;;;;;5072993;28;20191;-71
2021/11/04 02:00:36;;;;;;;29.90;21.97;;;10.40;99.90;;;;;;5074402;28;20251;-71
2021/11/04 02:03:06;;;;;;;29.70;22.30;;;10.40;99.90;;;;;;5074317;28;20651;-71
2021/11/04 02:05:44;;;;;;;30.20;23.10;;;10.40;99.90;;;;;;5055980;28;20188;-71
2021/11/04 02:08:45;;;;;;;32.20;23.05;;;10.30;99.90;;;;;;5056465;28;20172;-71
2021/11/04 02:11:19;;;;;;;28.33;21.15;;;10.40;99.90;;;;;;5074053;28;20562;-71
2021/11/04 02:13:58;;;;;;;28.00;18.45;;;10.30;99.90;;;;;;5056442;28;20169;-71
2021/11/04 02:16:25;;;;;;;32.97;23.67;;;10.30;99.90;;;;;;5073820;28;20547;-71
2021/11/04 02:18:53;;;;;;;31.88;22.63;;;10.30;99.90;;;;;;5074143;28;20169;-71
2021/11/04 02:21:44;;;;;;;30.60;21.77;;;10.40;99.90;;;;;;5072438;28;20294;-71
2021/11/04 02:24:33;;;;;;;30.92;21.90;;;10.30;99.90;;;;;;5056091;28;20169;-71
2021/11/04 02:27:01;;;;;;;33.40;22.55;;;10.40;99.90;;;;;;5073439;28;20247;-71
2021/11/04 02:29:27;;;;;;;30.00;22.35;;;10.30;99.90;;;;;;5073875;28;20176;-72
2021/11/04 02:31:53;;;;;;;32.25;23.88;;;10.30;99.90;;;;;;5073555;28;20589;-71
2021/11/04 02:34:18;;;;;;;25.20;19.90;;;10.30;99.90;;;;;;5073660;28;20168;-71
2021/11/04 02:36:45;;;;;;;33.37;23.80;;;10.20;99.90;;;;;;5073301;28;20184;-72
2021/11/04 02:39:12;;;;;;;31.38;22.67;;;10.20;99.90;;;;;;5073677;28;20191;-71
2021/11/04 02:41:38;;;;;;;28.98;21.83;;;10.20;99.90;;;;;;5073280;28;20540;-71
2021/11/04 02:44:08;;;;;;;33.83;23.60;;;10.20;99.90;;;;;;5055573;28;20179;-72
2021/11/04 02:46:35;;;;;;;32.65;21.38;;;10.20;99.90;;;;;;5073115;28;20210;-71
2021/11/04 02:49:02;;;;;;;33.42;21.75;;;10.10;99.90;;;;;;5073395;28;20160;-71
2021/11/04 02:51:29;;;;;;;30.08;20.65;;;10.20;99.90;;;;;;5073447;28;20574;-71
2021/11/04 02:53:54;;;;;;;32.05;22.92;;;10.20;99.90;;;;;;5073207;28;20537;-71
2021/11/04 02:56:20;;;;;;;27.23;20.17;;;10.10;99.90;;;;;;5072880;28;20188;-71
2021/11/04 02:58:46;;;;;;;32.17;21.23;;;10.10;99.90;;;;;;5073082;28;20172;-71
2021/11/04 03:01:12;;;;;;;27.80;20.00;;;10.10;99.90;;;;;;5055248;28;20192;-71
2021/11/04 03:03:37;;;;;;;30.50;19.77;;;10.10;99.90;;;;;;5072928;28;20172;-71
2021/11/04 03:06:04;;;;;;;31.10;20.80;;;10.10;99.90;;;;;;5071953;28;20590;-71
2021/11/04 03:08:30;;;;;;;35.75;22.25;;;10.10;99.90;;;;;;5072655;28;20220;-71
2021/11/04 03:10:56;;;;;;;28.90;20.25;;;10.10;99.90;;;;;;5072975;28;20164;-71
2021/11/04 03:13:22;;;;;;;28.13;18.58;;;10.10;99.90;;;;;;5071570;28;20539;-71
2021/11/04 03:15:56;;;;;;;28.48;20.15;;;10.00;99.90;;;;;;5054642;28;20188;-72
2021/11/04 03:18:23;;;;;;;25.25;17.75;;;10.00;99.90;;;;;;5070896;28;20161;-71
2021/11/04 03:20:49;;;;;;;35.15;21.80;;;10.10;99.90;;;;;;5071789;28;20200;-71
2021/11/04 03:23:16;;;;;;;32.65;20.83;;;10.10;99.90;;;;;;5054759;28;20195;-72
2021/11/04 03:25:45;;;;;;;28.23;20.13;;;10.00;99.90;;;;;;5054561;28;20290;-73
2021/11/04 03:28:11;;;;;;;26.00;19.25;;;10.00;99.90;;;;;;5055054;28;20176;-73
2021/11/04 03:30:39;;;;;;;30.35;20.65;;;10.00;99.90;;;;;;5054638;28;20238;-73
2021/11/04 03:33:08;;;;;;;34.40;22.00;;;10.00;99.90;;;;;;5038007;28;20588;-73
2021/11/04 03:35:36;;;;;;;30.05;21.55;;;10.00;99.90;;;;;;5054279;28;20192;-71
2021/11/04 03:38:06;;;;;;;35.15;23.10;;;10.00;99.90;;;;;;5072437;28;20172;-71
2021/11/04 03:40:33;;;;;;;34.92;22.85;;;9.90;99.90;;;;;;5072090;28;20298;-71
2021/11/04 03:42:59;;;;;;;33.28;22.27;;;9.90;99.90;;;;;;5072350;28;20168;-71
2021/11/04 03:45:26;;;;;;;34.05;21.20;;;9.90;99.90;;;;;;5071801;28;20204;-71
2021/11/04 03:47:53;;;;;;;29.58;21.35;;;9.90;99.90;;;;;;5072196;28;20164;-76
2021/11/04 03:50:19;;;;;;;33.78;22.50;;;9.90;99.90;;;;;;5072084;28;20177;-75
2021/11/04 03:52:46;;;;;;;31.60;19.92;;;9.90;99.90;;;;;;5054106;28;20168;-75
2021/11/04 03:55:14;;;;;;;32.80;22.88;;;9.90;99.90;;;;;;5054139;28;20200;-75
2021/11/04 03:57:42;;;;;;;37.72;23.65;;;9.90;99.90;;;;;;5071567;28;20172;-75
2021/11/04 04:00:12;;;;;;;33.70;21.67;;;9.90;99.90;;;;;;5072061;28;20195;-75
2021/11/04 04:02:39;;;;;;;37.13;23.30;;;9.90;99.90;;;;;;5071846;28;20574;-75
2021/11/04 04:05:05;;;;;;;35.75;23.52;;;9.80;99.90;;;;;;5072087;28;20206;-75
2021/11/04 04:07:33;;;;;;;33.25;22.15;;;9.80;99.90;;;;;;5071389;28;20251;-75
2021/11/04 04:09:59;;;;;;;36.80;24.65;;;9.80;99.90;;;;;;5071927;28;20164;-76
2021/11/04 04:12:25;;;;;;;39.08;22.02;;;9.80;99.90;;;;;;5071627;28;20176;-76
2021/11/04 04:14:51;;;;;;;32.33;22.95;;;9.80;99.90;;;;;;5071806;28;20207;-76
2021/11/04 04:17:20;;;;;;;38.42;24.35;;;9.80;99.90;;;;;;5036455;28;20179;-76
2021/11/04 04:19:46;;;;;;;37.00;21.85;;;9.80;99.90;;;;;;5071828;28;20298;-76
2021/11/04 04:22:12;;;;;;;36.40;23.33;;;9.70;99.90;;;;;;5071836;28;20203;-76
2021/11/04 04:24:37;;;;;;;32.57;20.13;;;9.80;99.90;;;;;;5070272;28;20227;-76
2021/11/04 04:27:03;;;;;;;29.67;19.47;;;9.80;99.90;;;;;;5070302;28;20180;-76
2021/11/04 04:29:29;;;;;;;34.00;21.88;;;9.80;99.90;;;;;;5071442;28;20258;-76
2021/11/04 04:31:55;;;;;;;33.87;21.07;;;9.80;99.90;;;;;;5053811;28;20164;-75
2021/11/04 04:34:21;;;;;;;34.10;21.23;;;9.80;99.90;;;;;;5071212;28;20562;-76
2021/11/04 04:36:47;;;;;;;39.80;23.30;;;9.80;99.90;;;;;;5071171;28;20184;-76
2021/11/04 04:39:13;;;;;;;35.90;22.30;;;9.80;99.90;;;;;;5071228;28;20912;-76
2021/11/04 04:41:38;;;;;;;38.50;23.47;;;9.80;99.90;;;;;;5071316;28;20835;-76
2021/11/04 04:44:04;;;;;;;32.53;19.90;;;9.80;99.90;;;;;;5071145;28;20170;-76
2021/11/04 04:46:30;;;;;;;36.57;22.73;;;9.80;99.90;;;;;;5070972;28;20200;-76
2021/11/04 04:48:55;;;;;;;36.50;23.80;;;9.80;99.90;;;;;;5069313;28;20570;-76
2021/11/04 04:51:21;;;;;;;35.37;21.60;;;9.80;99.90;;;;;;5069359;28;20168;-76
2021/11/04 04:53:47;;;;;;;27.57;17.10;;;9.80;99.90;;;;;;5069190;28;20255;-76
2021/11/04 04:56:13;;;;;;;34.03;20.60;;;9.80;99.90;;;;;;5069096;28;20218;-76
2021/11/04 04:58:38;;;;;;;30.37;20.97;;;9.80;99.90;;;;;;5071545;28;20168;-76
2021/11/04 05:01:04;;;;;;;34.23;20.93;;;9.80;99.90;;;;;;5069231;28;20286;-76
2021/11/04 05:03:32;;;;;;;30.83;20.80;;;9.80;99.90;;;;;;5052518;28;20172;-76
2021/11/04 05:05:58;;;;;;;32.67;20.05;;;9.80;99.90;;;;;;5070941;28;20588;-76
2021/11/04 05:08:24;;;;;;;30.40;21.03;;;9.80;99.90;;;;;;5071313;28;20168;-76
2021/11/04 05:10:49;;;;;;;30.27;19.27;;;9.80;99.90;;;;;;5070928;28;20221;-76
2021/11/04 05:13:15;;;;;;;31.00;19.10;;;9.80;99.90;;;;;;5053237;28;20176;-76
2021/11/04 05:15:41;;;;;;;29.40;20.77;;;9.80;99.90;;;;;;5070766;28;20527;-76
2021/11/04 05:18:08;;;;;;;29.90;20.17;;;9.70;99.90;;;;;;5053341;28;20180;-76
2021/11/04 05:20:38;;;;;;;29.48;19.35;;;9.70;99.90;;;;;;5070820;28;20227;-76
2021/11/04 05:23:05;;;;;;;31.58;21.27;;;9.70;99.90;;;;;;5071059;28;20508;-76
2021/11/04 05:25:31;;;;;;;29.85;20.23;;;9.70;99.90;;;;;;5052916;28;20181;-76
2021/11/04 05:27:56;;;;;;;30.98;20.55;;;9.70;99.90;;;;;;5070826;28;20168;-76
2021/11/04 05:30:22;;;;;;;35.57;20.80;;;9.70;99.90;;;;;;5073875;28;20179;-76
2021/11/04 05:32:49;;;;;;;36.70;21.60;;;9.70;99.90;;;;;;5074869;28;20658;-76
2021/11/04 05:35:15;;;;;;;33.33;20.05;;;9.80;99.90;;;;;;5075667;28;20234;-76
2021/11/04 05:37:41;;;;;;;32.85;21.45;;;9.70;99.90;;;;;;5074361;28;20750;-75
2021/11/04 05:40:08;;;;;;;32.97;21.17;;;9.70;99.90;;;;;;5057167;28;20291;-76
2021/11/04 05:42:33;;;;;;;31.75;19.95;;;9.70;99.90;;;;;;5056703;28;20516;-76
2021/11/04 05:44:59;;;;;;;30.40;18.37;;;9.70;99.90;;;;;;5074146;28;20198;-76
2021/11/04 05:47:26;;;;;;;30.00;17.75;;;9.70;99.90;;;;;;5074235;28;20222;-76
2021/11/04 05:49:51;;;;;;;32.65;21.23;;;9.70;99.90;;;;;;5074472;28;20176;-75
2021/11/04 05:52:17;;;;;;;36.43;22.53;;;9.70;99.90;;;;;;5074340;28;20176;-75
2021/11/04 05:54:43;;;;;;;37.37;22.00;;;9.70;99.90;;;;;;5073201;28;20562;-75
2021/11/04 05:57:09;;;;;;;43.70;24.73;;;9.70;99.90;;;;;;5074218;28;20176;-75
2021/11/04 05:59:34;;;;;;;40.40;24.27;;;9.70;99.90;;;;;;5074297;28;20616;-75
2021/11/04 06:02:00;;;;;;;39.83;22.47;;;9.70;99.90;;;;;;5074038;28;20175;-76
2021/11/04 06:04:32;;;;;;;39.00;23.27;;;9.70;99.90;;;;;;5074663;28;20192;-76
2021/11/04 06:06:57;;;;;;;32.28;21.20;;;9.70;99.90;;;;;;5073678;28;20196;-76
2021/11/04 06:09:23;;;;;;;35.43;21.70;;;9.60;99.90;;;;;;5074066;28;20194;-76
2021/11/04 06:11:50;;;;;;;40.33;23.50;;;9.70;99.90;;;;;;5078432;28;20172;-76
2021/11/04 06:14:16;;;;;;;36.75;22.83;;;9.60;99.90;;;;;;5074182;28;20195;-76
2021/11/04 06:16:42;;;;;;;40.13;22.73;;;9.60;99.90;;;;;;5073677;28;20223;-76
2021/11/04 06:19:07;;;;;;;42.63;23.70;;;9.60;99.90;;;;;;5074327;28;20567;-76
2021/11/04 06:21:33;;;;;;;42.20;23.17;;;9.60;99.90;;;;;;5055950;28;20614;-76
2021/11/04 06:23:59;;;;;;;42.97;23.87;;;9.60;99.90;;;;;;5074150;28;20213;-76
2021/11/04 06:26:24;;;;;;;44.00;24.40;;;9.60;99.90;;;;;;5055546;28;20176;-76
2021/11/04 06:28:50;;;;;;;39.97;23.57;;;9.60;99.90;;;;;;5074069;28;20168;-77
2021/11/04 06:31:16;;;;;;;44.37;26.43;;;9.60;99.90;;;;;;5073870;28;20172;-76
2021/11/04 06:33:42;;;;;;;44.33;26.13;;;9.60;99.90;;;;;;5072614;28;20267;-76
2021/11/04 06:36:07;;;;;;;45.90;26.00;;;9.60;99.90;;;;;;5073631;28;20196;-76
2021/11/04 06:38:34;;;;;;;41.37;24.70;;;9.60;99.90;;;;;;5072242;28;20172;-76
2021/11/04 06:41:00;;;;;;;43.97;25.70;;;9.60;99.90;;;;;;5055596;28;20200;-75
2021/11/04 06:43:27;;;;;;;44.80;26.95;;;9.60;99.90;;;;;;5073485;28;20173;-75
2021/11/04 06:45:55;;;;;;;42.92;27.23;;;9.60;99.90;;;;;;5073106;28;20207;-77
2021/11/04 06:48:31;;;;;;;48.70;29.25;;;9.60;99.90;;;;;;5059093;28;20380;-74
2021/11/04 06:50:59;;;;;;;47.75;26.27;;;9.60;99.90;;;;;;5073549;28;20260;-74
2021/11/04 06:53:27;;;;;;;43.78;28.08;;;9.60;99.90;;;;;;5038730;28;20179;-75
2021/11/04 06:55:55;;;;;;;46.70;26.27;;;9.60;99.90;;;;;;5073155;28;20204;-75
2021/11/04 06:58:27;;;;;;;42.80;26.50;;;9.60;99.90;;;;;;5073211;28;20169;-75
2021/11/04 07:00:55;;;;;;;44.92;26.45;;;9.60;99.90;;;;;;5070924;28;20204;-75
2021/11/04 07:03:27;;;;;;;47.78;28.85;;;9.60;99.90;;;;;;5071649;28;20165;-74
2021/11/04 07:06:00;;;;;;;50.05;29.55;;;9.60;99.90;;;;;;5054964;28;20224;-75
2021/11/04 07:08:28;;;;;;;43.70;27.38;;;9.60;99.90;;;;;;5054745;28;20268;-75
2021/11/04 07:10:58;;;;;;;44.42;29.15;;;9.60;99.90;;;;;;5072649;28;20180;-75
2021/11/04 07:13:26;;;;;;;46.70;28.60;;;9.60;99.90;;;;;;5071490;28;20176;-75
2021/11/04 07:15:55;;;;;;;43.53;28.08;;;9.60;99.90;;;;;;5072513;28;20613;-75
2021/11/04 07:18:21;;;;;;;47.60;27.70;;;9.60;99.90;;;;;;5072768;28;20164;-75
2021/11/04 07:20:53;;;;;;;50.83;30.10;;;9.60;99.90;;;;;;5054633;28;20322;-75
2021/11/04 07:23:27;;;;;;;46.25;29.77;;;9.60;99.90;;;;;;5072645;28;20212;-75
2021/11/04 07:25:59;;;;;;;42.03;27.60;;;9.60;99.90;;;;;;5071900;28;20184;-75
2021/11/04 07:28:27;;;;;;;45.63;27.65;;;9.60;99.90;;;;;;5072715;28;20191;-75
2021/11/04 07:30:56;;;;;;;39.33;24.85;;;9.60;99.90;;;;;;5054195;28;20230;-75
2021/11/04 07:33:24;;;;;;;42.03;26.90;;;9.60;99.90;;;;;;5072450;28;20164;-75
2021/11/04 07:35:51;;;;;;;40.75;24.63;;;9.50;99.90;;;;;;5071707;28;20192;-75
2021/11/04 07:38:18;;;;;;;37.08;22.40;;;9.60;99.90;;;;;;5054450;28;20164;-75
2021/11/04 07:40:43;;;;;;;45.35;25.67;;;9.60;99.90;;;;;;5072045;28;20612;-74
2021/11/04 07:43:09;;;;;;;39.00;24.23;;;9.60;99.90;;;;;;5072398;28;20206;-75
2021/11/04 07:45:36;;;;;;;40.17;25.93;;;9.60;99.90;;;;;;5071886;28;20614;-75
2021/11/04 07:48:02;;;;;;;35.75;22.83;;;9.60;99.90;;;;;;5070641;28;20616;-75
2021/11/04 07:50:30;;;;;;;35.00;24.63;;;9.60;99.90;;;;;;5072281;28;20176;-74
2021/11/04 07:52:56;;;;;;;34.80;23.35;;;9.60;99.90;;;;;;5053071;28;20639;-75
2021/11/04 07:55:22;;;;;;;37.10;22.27;;;9.60;99.90;;;;;;5072006;28;20188;-75
2021/11/04 07:57:49;;;;;;;34.47;23.20;;;9.60;99.90;;;;;;5071581;28;20206;-75
2021/11/04 08:00:17;;;;;;;40.03;26.27;;;9.60;99.90;;;;;;5071927;28;20629;-74
2021/11/04 08:02:43;;;;;;;41.65;25.85;;;9.60;99.90;;;;;;5054280;28;20175;-75
2021/11/04 08:05:15;;;;;;;41.97;24.75;;;9.60;99.90;;;;;;5071580;28;20222;-75
2021/11/04 08:07:41;;;;;;;35.60;24.55;;;9.70;99.90;;;;;;5071212;28;20294;-75
2021/11/04 08:10:14;;;;;;;39.90;25.63;;;9.70;99.90;;;;;;5053910;28;20168;-75
2021/11/04 08:12:40;;;;;;;39.67;24.50;;;9.70;99.90;;;;;;5071419;28;20523;-75
2021/11/04 08:15:08;;;;;;;34.63;21.77;;;9.70;99.90;;;;;;5071634;28;20192;-74
2021/11/04 08:17:35;;;;;;;44.55;25.08;;;9.70;99.90;;;;;;5049638;28;20177;-74
2021/11/04 08:20:02;;;;;;;36.33;23.08;;;9.70;99.90;;;;;;5051469;28;20196;-76
2021/11/04 08:22:27;;;;;;;39.80;24.60;;;9.70;99.90;;;;;;5051563;28;20577;-75
2021/11/04 08:24:53;;;;;;;35.67;23.97;;;9.70;99.90;;;;;;5049857;28;20299;-76
2021/11/04 08:27:19;;;;;;;36.10;22.50;;;9.70;99.90;;;;;;5051054;28;20260;-75
2021/11/04 08:29:45;;;;;;;38.38;23.27;;;9.70;99.90;;;;;;5051272;28;20529;-76
2021/11/04 08:32:12;;;;;;;36.92;24.10;;;9.70;99.90;;;;;;5051580;28;20684;-72
2021/11/04 08:34:41;;;;;;;47.30;25.48;;;9.70;99.90;;;;;;5051335;28;20522;-72
2021/11/04 08:37:09;;;;;;;34.25;25.20;;;9.80;99.90;;;;;;5051471;28;20197;-71
2021/11/04 08:39:35;;;;;;;35.03;23.38;;;9.80;99.90;;;;;;5066705;28;20172;-72
2021/11/04 08:42:02;;;;;;;39.47;25.77;;;9.90;99.90;;;;;;5051325;28;20172;-71
2021/11/04 08:44:28;;;;;;;31.95;23.90;;;9.90;99.90;;;;;;5051495;28;20218;-71
2021/11/04 08:46:54;;;;;;;31.53;22.77;;;10.00;99.90;;;;;;5052771;28;20774;-71
2021/11/04 08:49:20;;;;;;;35.60;23.63;;;10.00;99.90;;;;;;5050108;28;20614;-71
2021/11/04 08:51:46;;;;;;;29.97;21.27;;;10.00;99.90;;;;;;5051265;28;20201;-71
2021/11/04 08:54:12;;;;;;;39.08;26.70;;;10.10;99.90;;;;;;5038477;28;21283;-72
2021/11/04 08:56:39;;;;;;;34.05;23.08;;;10.10;99.90;;;;;;5069712;28;20288;-72
2021/11/04 08:59:06;;;;;;;32.40;24.23;;;10.10;99.90;;;;;;5053571;28;20175;-71
2021/11/04 09:01:35;;;;;;;35.80;25.40;;;10.20;99.90;;;;;;5070921;28;20188;-72
2021/11/04 09:04:02;;;;;;;32.05;22.83;;;10.20;99.90;;;;;;5072191;28;20229;-72
2021/11/04 09:06:28;;;;;;;28.83;21.27;;;10.30;99.90;;;;;;5074745;28;20196;-72
2021/11/04 09:08:55;;;;;;;31.63;21.63;;;10.30;99.90;;;;;;5075221;28;20243;-71
2021/11/04 09:11:20;;;;;;;27.98;20.88;;;10.40;99.90;;;;;;5075079;28;20187;-72
2021/11/04 09:13:46;;;;;;;27.80;20.40;;;10.40;99.90;;;;;;5067405;28;20175;-72
2021/11/04 09:16:12;;;;;;;28.73;19.67;;;10.50;99.90;;;;;;5057113;28;20188;-72
2021/11/04 09:18:37;;;;;;;28.60;19.43;;;10.50;99.90;;;;;;5074250;28;20195;-73
2021/11/04 09:21:03;;;;;;;27.47;19.43;;;10.60;99.90;;;;;;5057043;28;20253;-72
2021/11/04 09:23:29;;;;;;;28.50;19.27;;;10.60;99.90;;;;;;5057142;28;20753;-72
2021/11/04 09:25:55;;;;;;;27.60;18.00;;;10.70;99.90;;;;;;5073563;28;20508;-72
2021/11/04 09:28:21;;;;;;;32.07;22.40;;;10.70;99.90;;;;;;5074280;28;20161;-72
2021/11/04 09:30:46;;;;;;;28.27;20.67;;;10.80;99.90;;;;;;5074880;28;20554;-72
2021/11/04 09:33:14;;;;;;;34.20;23.60;;;10.80;99.90;;;;;;5074578;28;20267;-72
2021/11/04 09:35:40;;;;;;;30.10;22.20;;;10.80;99.90;;;;;;5074895;28;20199;-72
2021/11/04 09:38:06;;;;;;;31.70;23.27;;;10.80;99.90;;;;;;5057024;28;20165;-72
2021/11/04 09:40:33;;;;;;;33.00;22.73;;;10.90;99.90;;;;;;5074601;28;20604;-72
2021/11/04 09:42:59;;;;;;;27.30;20.23;;;10.80;99.90;;;;;;5074619;28;20534;-71
2021/11/04 09:45:28;;;;;;;34.53;24.30;;;10.80;99.90;;;;;;5074465;28;20203;-71
2021/11/04 09:47:54;;;;;;;31.00;21.92;;;10.90;99.90;;;;;;5074379;28;20184;-72
2021/11/04 09:50:21;;;;;;;26.45;20.95;;;10.80;99.90;;;;;;5074418;28;20265;-71
2021/11/04 09:52:53;;;;;;;28.05;20.25;;;10.80;99.90;;;;;;5056594;28;20306;-72
2021/11/04 09:55:21;;;;;;;31.88;23.23;;;10.90;99.90;;;;;;5074239;28;20545;-72
2021/11/04 09:57:52;;;;;;;29.13;20.88;;;10.90;99.90;;;;;;5056875;28;20160;-72
2021/11/04 10:00:19;;;;;;;28.73;19.40;;;10.90;99.90;;;;;;5056453;28;20315;-72
2021/11/04 10:02:46;;;;;;;27.65;20.55;;;10.90;99.90;;;;;;5074472;28;20266;-72
2021/11/04 10:05:14;;;;;;;29.75;21.02;;;10.90;99.90;;;;;;5072819;28;20679;-72
2021/11/04 10:07:45;;;;;;;30.02;21.05;;;11.00;99.90;;;;;;5074343;28;20555;-72
2021/11/04 10:10:12;;;;;;;28.25;21.80;;;11.10;99.90;;;;;;5074423;28;20172;-72
2021/11/04 10:12:54;;;;;;;30.58;21.13;;;11.10;99.90;;;;;;5056283;28;20172;-72
2021/11/04 10:15:21;;;;;;;31.90;22.17;;;11.20;99.90;;;;;;5073815;28;20196;-72
2021/11/04 10:17:46;;;;;;;32.83;21.75;;;11.40;99.90;;;;;;5056326;28;20180;-72
2021/11/04 10:20:31;;;;;;;29.93;20.57;;;11.50;99.90;;;;;;5074197;28;20238;-72
2021/11/04 10:23:06;;;;;;;34.45;23.98;;;11.60;99.90;;;;;;5073908;28;20160;-72
2021/11/04 10:25:33;;;;;;;36.60;25.15;;;11.60;99.90;;;;;;5074096;28;20591;-73
2021/11/04 10:28:19;;;;;;;35.22;23.08;;;11.80;99.90;;;;;;5073772;28;20241;-72
2021/11/04 10:30:45;;;;;;;30.20;21.60;;;11.80;99.90;;;;;;5056125;28;20177;-72
2021/11/04 10:33:30;;;;;;;35.83;24.00;;;11.90;99.90;;;;;;5073706;28;20574;-72
2021/11/04 10:36:00;;;;;;;30.77;22.13;;;12.00;99.90;;;;;;5073849;28;20578;-72
2021/11/04 10:38:38;;;;;;;32.30;23.38;;;12.10;99.90;;;;;;5073927;28;20176;-72
2021/11/04 10:41:09;;;;;;;31.50;23.77;;;12.10;99.90;;;;;;5073918;28;20196;-72
2021/11/04 10:43:37;;;;;;;29.42;22.80;;;12.20;99.90;;;;;;5073678;28;20563;-72
2021/11/04 10:46:13;;;;;;;33.65;24.40;;;12.20;99.90;;;;;;5072319;28;20615;-72
2021/11/04 10:48:47;;;;;;;29.95;22.42;;;12.20;99.90;;;;;;5051311;28;20223;-72
2021/11/04 10:51:16;;;;;;;28.67;21.50;;;12.30;99.90;;;;;;5075707;28;20183;-72
2021/11/04 10:53:42;;;;;;;28.73;21.63;;;12.30;99.90;;;;;;5074959;28;20616;-72
2021/11/04 10:56:19;;;;;;;29.90;22.50;;;12.30;99.90;;;;;;5072729;28;20271;-72
2021/11/04 10:58:56;;;;;;;32.60;21.63;;;12.30;99.90;;;;;;5072893;28;20164;-71
2021/11/04 11:01:34;;;;;;;29.80;21.60;;;12.40;99.90;;;;;;5072590;28;20683;-72
2021/11/04 11:04:06;;;;;;;28.97;19.67;;;12.50;99.90;;;;;;5072986;28;21011;-72
2021/11/04 11:06:53;;;;;;;27.87;20.77;;;12.70;99.90;;;;;;5071287;28;20648;-73
2021/11/04 11:09:22;;;;;;;30.47;20.50;;;12.80;99.90;;;;;;5038025;28;20640;-73
2021/11/04 11:14:36;;;;;;;27.50;21.47;;;13.20;99.90;;;;;;5065970;28;20624;-83
2021/11/04 11:17:04;;;;;;;27.97;22.47;;;13.30;99.90;;;;;;5051241;28;20921;-85
2021/11/04 11:19:42;;;;;;;25.20;21.60;;;13.40;99.90;;;;;;5043956;28;20913;-86
2021/11/04 11:22:09;;;;;;;25.27;19.50;;;13.50;99.90;;;;;;5055406;28;20599;-86
2021/11/04 11:24:44;;;;;;;21.23;17.90;;;13.60;99.90;;;;;;5054750;28;20610;-87
2021/11/04 11:27:15;;;;;;;20.60;16.53;;;13.70;99.90;;;;;;5051991;28;20740;-83
2021/11/04 11:29:43;;;;;;;21.13;15.97;;;13.80;99.90;;;;;;5054354;28;20617;-83
2021/11/04 11:32:27;;;;;;;20.53;17.50;;;13.80;99.90;;;;;;5064278;28;20695;-83
2021/11/04 11:35:21;;;;;;;22.37;18.43;;;13.80;99.90;;;;;;5077508;28;20577;-82
2021/11/04 11:37:55;;;;;;;23.20;18.40;;;13.80;99.90;;;;;;5068067;28;20584;-82
2021/11/04 11:40:23;;;;;;;22.40;18.63;;;13.80;99.90;;;;;;5068789;28;20609;-82
2021/11/04 11:43:10;;;;;;;23.03;18.40;;;13.80;99.90;;;;;;5052994;28;20189;-83
2021/11/04 11:45:39;;;;;;;19.93;16.87;;;13.70;99.90;;;;;;5052197;28;20606;-82
2021/11/04 11:48:19;;;;;;;19.33;17.30;;;13.60;99.90;;;;;;5067346;28;20606;-83
2021/11/04 11:50:48;;;;;;;19.17;16.80;;;13.60;99.90;;;;;;5057450;28;20588;-84
2021/11/04 11:53:23;;;;;;;23.17;17.93;;;13.40;99.90;;;;;;5076150;28;20968;-83
2021/11/04 11:55:53;;;;;;;24.50;19.50;;;13.30;99.90;;;;;;5039347;28;20581;-85
2021/11/04 11:58:31;;;;;;;25.25;20.25;;;13.20;99.90;;;;;;5056974;28;20579;-85
2021/11/04 12:01:13;;;;;;;27.03;21.63;;;13.10;99.90;;;;;;5059606;28;20228;-83
2021/11/04 12:03:40;;;;;;;31.37;24.70;;;13.00;99.90;;;;;;5054478;28;20595;-84
2021/11/04 12:06:12;;;;;;;27.63;22.33;;;13.00;99.90;;;;;;5071914;28;20597;-85
2021/11/04 12:08:40;;;;;;;28.97;23.23;;;13.00;99.90;;;;;;5038097;28;20549;-84
2021/11/04 12:11:08;;;;;;;32.40;23.65;;;13.10;99.90;;;;;;5073549;28;20566;-84
2021/11/04 12:13:42;;;;;;;34.23;24.87;;;13.20;99.90;;;;;;5056987;28;20206;-85
2021/11/04 12:16:27;;;;;;;28.60;24.27;;;13.40;99.90;;;;;;5072626;28;20576;-83
2021/11/04 12:18:54;;;;;;;27.53;22.37;;;13.60;99.90;;;;;;5055595;28;20682;-87
2021/11/04 12:21:27;;;;;;;22.93;20.47;;;13.80;99.90;;;;;;5073565;28;20656;-86
2021/11/04 12:23:55;;;;;;;22.73;19.80;;;14.00;99.90;;;;;;5054958;28;20602;-85
2021/11/04 12:26:46;;;;;;;24.50;21.17;;;14.20;99.90;;;;;;5072486;28;20571;-86
2021/11/04 12:29:13;;;;;;;21.13;18.83;;;14.30;99.90;;;;;;5068863;28;20716;-85
2021/11/04 12:31:41;;;;;;;23.40;19.50;;;14.40;99.90;;;;;;5071759;28;20567;-87
2021/11/04 12:34:18;;;;;;;21.90;19.63;;;14.50;99.90;;;;;;5053674;28;20607;-84
2021/11/04 12:36:44;;;;;;;24.27;18.80;;;14.50;99.90;;;;;;5069794;28;20610;-85
2021/11/04 12:39:27;;;;;;;22.90;20.30;;;14.50;99.90;;;;;;5071617;28;20585;-84